Time;durP1;ratioP1;P1;durP2;ratioP2;P2;SDS_P1;SDS_P2;PMS_P1;PMS_P2;Temp;Humidity;BMP_temperature;BMP_pressure;BME280_temperature;BME280_humidity;BME280_pressure;Samples;Min_cycle;Max_cycle;Signal;HPM_P1;HPM_P2
2022/05/06 00:01:03;;;;;;;55.40;32.25;;;9.30;99.90;;;;;;5050262;28;20048;-74
2022/05/06 00:03:29;;;;;;;50.67;31.60;;;9.20;99.90;;;;;;5048701;28;20135;-74
2022/05/06 00:05:55;;;;;;;63.65;34.22;;;9.20;99.90;;;;;;5031647;28;20139;-74
2022/05/06 00:08:20;;;;;;;61.38;35.03;;;9.20;99.90;;;;;;5031653;28;20037;-74
2022/05/06 00:10:46;;;;;;;61.70;32.28;;;9.10;99.90;;;;;;5049723;28;20053;-74
2022/05/06 00:13:12;;;;;;;53.13;34.08;;;9.10;99.90;;;;;;5021410;28;20060;-74
2022/05/06 00:15:37;;;;;;;63.58;34.80;;;9.10;99.90;;;;;;5049963;28;20033;-74
2022/05/06 00:18:03;;;;;;;56.30;32.45;;;9.00;99.90;;;;;;5036473;28;20049;-74
2022/05/06 00:20:29;;;;;;;57.40;34.03;;;9.00;99.90;;;;;;5050025;28;20048;-74
2022/05/06 00:22:57;;;;;;;57.20;34.90;;;9.00;99.90;;;;;;5031018;28;20049;-74
2022/05/06 00:25:24;;;;;;;54.08;32.70;;;9.00;99.90;;;;;;5050074;28;20037;-74
2022/05/06 00:27:49;;;;;;;54.90;34.00;;;8.90;99.90;;;;;;5049387;28;20136;-74
2022/05/06 00:30:15;;;;;;;57.92;35.13;;;8.90;99.90;;;;;;5031758;28;20599;-74
2022/05/06 00:32:40;;;;;;;60.50;36.45;;;8.90;99.90;;;;;;5049365;28;20063;-74
2022/05/06 00:35:07;;;;;;;53.70;34.10;;;8.90;99.90;;;;;;5048606;28;20060;-74
2022/05/06 00:37:32;;;;;;;54.60;31.88;;;8.90;99.90;;;;;;5049339;28;20555;-74
2022/05/06 00:39:58;;;;;;;54.25;30.05;;;8.80;99.90;;;;;;5030915;28;20045;-74
2022/05/06 00:42:24;;;;;;;63.00;33.97;;;8.80;99.90;;;;;;5027383;28;20122;-74
2022/05/06 00:44:49;;;;;;;44.63;28.40;;;8.80;99.90;;;;;;5005008;28;20156;-74
2022/05/06 00:47:18;;;;;;;50.78;30.83;;;8.80;99.90;;;;;;5049094;28;20146;-74
2022/05/06 00:49:45;;;;;;;49.67;29.20;;;8.80;99.90;;;;;;5031478;28;20048;-74
2022/05/06 00:52:11;;;;;;;48.60;31.10;;;8.80;99.90;;;;;;5049119;28;20036;-74
2022/05/06 00:54:39;;;;;;;59.72;32.30;;;8.70;99.90;;;;;;5031534;28;20070;-74
2022/05/06 00:57:06;;;;;;;;;;;8.70;99.90;;;;;;5048226;28;20056;-74
2022/05/06 00:59:32;;;;;;;49.35;28.13;;;8.60;99.90;;;;;;5049010;28;19927;-73
2022/05/06 01:01:58;;;;;;;42.28;27.17;;;8.60;99.90;;;;;;5048912;28;20413;-74
2022/05/06 01:04:24;;;;;;;43.83;28.38;;;8.50;99.90;;;;;;5049241;28;20045;-74
2022/05/06 01:06:50;;;;;;;43.95;27.13;;;8.50;99.90;;;;;;5049024;28;20503;-74
2022/05/06 01:09:18;;;;;;;41.58;25.92;;;8.50;99.90;;;;;;5031197;28;20532;-74
2022/05/06 01:11:44;;;;;;;40.15;25.98;;;8.50;99.90;;;;;;5047093;28;20577;-74
2022/05/06 01:14:29;;;;;;;56.30;28.33;;;8.40;99.90;;;;;;5048985;28;20053;-74
2022/05/06 01:16:55;;;;;;;40.95;24.90;;;8.40;99.90;;;;;;5049163;28;20056;-74
2022/05/06 01:19:20;;;;;;;49.88;27.58;;;8.50;99.90;;;;;;5047912;28;20037;-74
2022/05/06 01:21:52;;;;;;;42.67;25.95;;;8.40;99.90;;;;;;5048708;28;20044;-74
2022/05/06 01:24:18;;;;;;;41.70;24.55;;;8.40;99.90;;;;;;5031071;28;20049;-74
2022/05/06 01:26:58;;;;;;;45.10;27.63;;;8.40;99.90;;;;;;5048535;28;20383;-74
2022/05/06 01:29:26;;;;;;;44.60;26.70;;;8.40;99.90;;;;;;5030384;28;20055;-74
2022/05/06 01:31:53;;;;;;;44.67;25.55;;;8.30;99.90;;;;;;5048989;28;20049;-74
2022/05/06 01:34:21;;;;;;;46.95;27.55;;;8.30;99.90;;;;;;5030449;28;20069;-74
2022/05/06 01:36:50;;;;;;;52.83;29.07;;;8.30;99.90;;;;;;5048240;28;20490;-74
2022/05/06 01:39:20;;;;;;;43.58;25.52;;;8.20;99.90;;;;;;5030571;28;20295;-74
2022/05/06 01:41:51;;;;;;;44.17;26.75;;;8.20;99.90;;;;;;5048205;28;20099;-74
2022/05/06 01:44:21;;;;;;;47.65;26.38;;;8.20;99.90;;;;;;5030443;28;20080;-74
2022/05/06 01:46:47;;;;;;;46.42;27.02;;;8.10;99.90;;;;;;5048177;28;20052;-74
2022/05/06 01:49:15;;;;;;;45.83;28.45;;;8.10;99.90;;;;;;5047419;28;20045;-74
2022/05/06 01:51:42;;;;;;;48.22;27.52;;;8.10;99.90;;;;;;5030703;28;20406;-74
2022/05/06 01:54:09;;;;;;;45.30;26.00;;;8.10;99.90;;;;;;5048472;28;20090;-74
2022/05/06 01:56:35;;;;;;;43.55;27.40;;;8.10;99.90;;;;;;5048105;28;20598;-74
2022/05/06 01:59:01;;;;;;;44.70;25.27;;;8.10;99.90;;;;;;5048105;28;20045;-74
2022/05/06 02:01:27;;;;;;;43.15;25.20;;;8.00;99.90;;;;;;5046596;28;20052;-73
2022/05/06 02:06:37;;;;;;;41.92;25.92;;;8.00;99.90;;;;;;5048322;28;20131;-74
2022/05/06 02:09:03;;;;;;;42.10;26.48;;;7.90;99.90;;;;;;5050767;28;20139;-74
2022/05/06 02:11:28;;;;;;;39.45;25.77;;;7.90;99.90;;;;;;5050883;28;20048;-74
2022/05/06 02:13:55;;;;;;;43.80;26.08;;;7.90;99.90;;;;;;5021567;28;20044;-73
2022/05/06 02:16:21;;;;;;;45.10;25.98;;;7.90;99.90;;;;;;5033883;28;20055;-73
2022/05/06 02:18:46;;;;;;;42.30;25.27;;;7.90;99.90;;;;;;5051958;28;20120;-73
2022/05/06 02:21:12;;;;;;;46.85;27.20;;;7.80;99.90;;;;;;5051714;28;20048;-73
2022/05/06 02:23:38;;;;;;;47.83;25.35;;;7.80;99.90;;;;;;5034223;28;20693;-74
2022/05/06 02:26:04;;;;;;;40.90;26.30;;;7.80;99.90;;;;;;5033599;28;20045;-73
2022/05/06 02:28:29;;;;;;;45.53;26.63;;;7.80;99.90;;;;;;5033768;28;20395;-74
2022/05/06 02:33:39;;;;;;;46.13;27.08;;;7.70;99.90;;;;;;5033584;28;20065;-73
2022/05/06 02:36:06;;;;;;;56.40;27.83;;;7.70;99.90;;;;;;5051696;28;20060;-73
2022/05/06 02:38:31;;;;;;;50.88;28.85;;;7.70;99.90;;;;;;5033799;28;20049;-74
2022/05/06 02:40:57;;;;;;;46.92;27.42;;;7.70;99.90;;;;;;5032883;28;20390;-73
2022/05/06 02:43:23;;;;;;;43.17;26.77;;;7.60;99.90;;;;;;5051915;28;20047;-74
2022/05/06 02:45:49;;;;;;;43.70;27.60;;;7.60;99.90;;;;;;5049842;28;20059;-73
2022/05/06 02:48:14;;;;;;;42.88;26.08;;;7.60;99.90;;;;;;5050413;28;20045;-74
2022/05/06 02:50:41;;;;;;;44.45;25.77;;;7.60;99.90;;;;;;5033642;28;20037;-74
2022/05/06 02:53:07;;;;;;;48.47;27.15;;;7.60;99.90;;;;;;5032738;28;20049;-74
2022/05/06 02:55:33;;;;;;;47.25;28.38;;;7.60;99.90;;;;;;5033309;28;20049;-73
2022/05/06 02:57:59;;;;;;;49.78;29.63;;;7.60;99.90;;;;;;5033269;28;20073;-73
2022/05/06 03:00:24;;;;;;;43.80;28.13;;;7.50;99.90;;;;;;5050949;28;20052;-73
2022/05/06 03:02:51;;;;;;;42.17;27.58;;;7.50;99.90;;;;;;5051480;28;20041;-74
2022/05/06 03:05:16;;;;;;;53.40;28.10;;;7.50;99.90;;;;;;5040734;28;20057;-74
2022/05/06 03:07:42;;;;;;;48.50;30.20;;;7.50;99.90;;;;;;5048977;28;20563;-74
2022/05/06 03:10:09;;;;;;;50.25;31.38;;;7.50;99.90;;;;;;5032483;28;20489;-74
2022/05/06 03:12:35;;;;;;;52.97;32.25;;;7.40;99.90;;;;;;5050743;28;20136;-73
2022/05/06 03:15:05;;;;;;;54.10;33.17;;;7.50;99.90;;;;;;5032267;28;20514;-74
2022/05/06 03:17:32;;;;;;;56.08;32.17;;;7.40;99.90;;;;;;5033449;28;20560;-74
2022/05/06 03:19:58;;;;;;;55.80;31.48;;;7.40;99.90;;;;;;5049525;28;20410;-73
2022/05/06 03:22:24;;;;;;;41.00;27.02;;;7.40;99.90;;;;;;5033442;28;20044;-73
2022/05/06 03:24:50;;;;;;;46.30;30.27;;;7.40;99.90;;;;;;5051984;28;20061;-73
2022/05/06 03:30:00;;;;;;;54.67;30.40;;;7.30;99.90;;;;;;5031658;28;20061;-73
2022/05/06 03:32:27;;;;;;;58.63;30.23;;;7.30;99.90;;;;;;5033109;28;20442;-73
2022/05/06 03:34:53;;;;;;;47.53;29.48;;;7.30;99.90;;;;;;5032320;28;20072;-73
2022/05/06 03:37:19;;;;;;;53.63;29.90;;;7.30;99.90;;;;;;5029363;28;20292;-73
2022/05/06 03:39:45;;;;;;;43.25;28.38;;;7.30;99.90;;;;;;5016712;28;20045;-73
2022/05/06 03:42:10;;;;;;;48.92;28.92;;;7.30;99.90;;;;;;5049734;28;20041;-74
2022/05/06 03:44:36;;;;;;;45.85;28.00;;;7.30;99.90;;;;;;5050489;28;20053;-73
2022/05/06 03:47:02;;;;;;;44.75;28.40;;;7.30;99.90;;;;;;5050876;28;20048;-73
2022/05/06 03:49:27;;;;;;;40.63;25.98;;;7.30;99.90;;;;;;5050234;28;20044;-73
2022/05/06 03:51:53;;;;;;;46.08;29.67;;;7.20;99.90;;;;;;5032608;28;20387;-73
2022/05/06 03:54:19;;;;;;;50.58;29.38;;;7.20;99.90;;;;;;5050423;28;20150;-74
2022/05/06 03:56:44;;;;;;;40.60;29.52;;;7.20;99.90;;;;;;5050195;28;20456;-73
2022/05/06 03:59:11;;;;;;;45.65;31.23;;;7.20;99.90;;;;;;5031575;28;20052;-74
2022/05/06 04:01:42;;;;;;;57.17;30.75;;;7.20;99.90;;;;;;5030776;28;20407;-75
2022/05/06 04:04:08;;;;;;;51.63;31.30;;;7.20;99.90;;;;;;5047969;28;20040;-74
2022/05/06 04:06:33;;;;;;;56.75;34.92;;;7.20;99.90;;;;;;5048371;28;20045;-74
2022/05/06 04:08:59;;;;;;;55.00;31.33;;;7.20;99.90;;;;;;5012939;28;20056;-74
2022/05/06 04:11:25;;;;;;;44.00;30.52;;;7.20;99.90;;;;;;5048379;28;20064;-74
2022/05/06 04:13:51;;;;;;;59.30;33.60;;;7.30;99.90;;;;;;5033402;28;20064;-74
2022/05/06 04:16:31;;;;;;;52.92;31.00;;;7.30;99.90;;;;;;5053100;28;20049;-74
2022/05/06 04:18:57;;;;;;;46.47;29.45;;;7.40;99.90;;;;;;5051112;28;20049;-75
2022/05/06 04:24:07;;;;;;;41.67;27.02;;;7.50;99.90;;;;;;5048553;28;20110;-73
2022/05/06 04:26:33;;;;;;;41.50;27.23;;;7.60;99.90;;;;;;5049698;28;20628;-73
2022/05/06 04:28:59;;;;;;;41.95;25.77;;;7.70;99.90;;;;;;5031438;28;20873;-73
2022/05/06 04:31:25;;;;;;;42.55;24.05;;;7.70;99.90;;;;;;5030757;28;20037;-74
2022/05/06 04:33:50;;;;;;;37.53;23.30;;;7.80;99.90;;;;;;5025607;28;20054;-73
2022/05/06 04:36:16;;;;;;;33.17;22.27;;;7.70;99.90;;;;;;5043053;28;20114;-73
2022/05/06 04:38:41;;;;;;;45.20;22.73;;;7.70;99.90;;;;;;5023695;28;20494;-74
2022/05/06 04:41:07;;;;;;;40.08;23.17;;;7.70;99.90;;;;;;5044976;28;20056;-75
2022/05/06 04:43:34;;;;;;;46.00;24.88;;;7.80;99.90;;;;;;5042520;28;20037;-74
2022/05/06 04:46:00;;;;;;;36.05;23.15;;;7.80;99.90;;;;;;5025512;28;20055;-74
2022/05/06 04:48:26;;;;;;;35.95;23.95;;;7.90;99.90;;;;;;5046716;28;20044;-73
2022/05/06 04:50:52;;;;;;;36.03;21.30;;;8.00;99.90;;;;;;5025968;28;20502;-75
2022/05/06 04:53:18;;;;;;;41.47;25.55;;;8.00;99.90;;;;;;5040611;28;20041;-74
2022/05/06 04:55:46;;;;;;;35.78;23.38;;;8.10;99.90;;;;;;5043779;28;20390;-75
2022/05/06 04:58:14;;;;;;;37.60;24.55;;;8.10;99.90;;;;;;5045603;28;20037;-75
2022/05/06 05:00:40;;;;;;;49.88;28.15;;;8.10;99.90;;;;;;5040708;28;20049;-75
2022/05/06 05:03:06;;;;;;;42.20;26.52;;;8.10;99.90;;;;;;5035462;28;20049;-76
2022/05/06 05:05:34;;;;;;;48.92;27.55;;;8.10;99.90;;;;;;5041540;28;20104;-76
2022/05/06 05:08:00;;;;;;;40.03;26.02;;;8.10;99.90;;;;;;5023993;28;20080;-75
2022/05/06 05:10:26;;;;;;;43.53;25.25;;;8.10;99.90;;;;;;5036472;28;20052;-75
2022/05/06 05:12:51;;;;;;;41.13;25.67;;;8.10;99.90;;;;;;5019191;28;20532;-75
2022/05/06 05:15:17;;;;;;;43.63;26.95;;;8.10;99.90;;;;;;5039199;28;20045;-75
2022/05/06 05:17:47;;;;;;;42.75;28.23;;;8.10;99.90;;;;;;5025282;28;20138;-75
2022/05/06 05:20:14;;;;;;;50.42;31.13;;;8.10;99.90;;;;;;5024463;28;20045;-77
2022/05/06 05:22:40;;;;;;;52.35;31.50;;;8.10;99.90;;;;;;5044496;28;20048;-76
2022/05/06 05:25:07;;;;;;;42.45;27.92;;;8.20;99.90;;;;;;5041135;28;20041;-75
2022/05/06 05:27:34;;;;;;;58.67;30.25;;;8.20;99.90;;;;;;5041309;28;20056;-75
2022/05/06 05:30:01;;;;;;;59.30;31.77;;;8.20;99.90;;;;;;5042740;28;20056;-77
2022/05/06 05:32:27;;;;;;;55.67;31.42;;;8.30;99.90;;;;;;5025755;28;20092;-77
2022/05/06 05:34:53;;;;;;;61.10;32.80;;;8.40;99.90;;;;;;5025662;28;20124;-75
2022/05/06 05:37:19;;;;;;;53.85;32.33;;;8.50;99.90;;;;;;5041562;28;20052;-75
2022/05/06 05:39:45;;;;;;;51.83;32.70;;;8.50;99.90;;;;;;5042648;28;20087;-76
2022/05/06 05:42:13;;;;;;;48.17;31.95;;;8.60;99.90;;;;;;5023328;28;20461;-76
2022/05/06 05:50:08;;;;;;;58.65;32.63;;;8.80;99.90;;;;;;5023350;28;20075;-77
2022/05/06 05:52:34;;;;;;;52.97;34.35;;;8.90;99.90;;;;;;5040018;28;20099;-74
2022/05/06 05:54:59;;;;;;;50.33;33.25;;;8.90;99.90;;;;;;5026064;28;20056;-73
2022/05/06 05:57:25;;;;;;;57.63;36.80;;;9.00;99.90;;;;;;5035221;28;20045;-73
2022/05/06 05:59:50;;;;;;;56.95;34.85;;;9.10;99.90;;;;;;5046659;28;20048;-74
2022/05/06 06:02:17;;;;;;;66.03;38.67;;;9.10;99.90;;;;;;5043100;28;20036;-73
2022/05/06 06:04:43;;;;;;;71.55;42.67;;;9.20;99.90;;;;;;5043844;28;20072;-73
2022/05/06 06:07:09;;;;;;;76.93;43.20;;;9.40;99.90;;;;;;5047029;28;20087;-73
2022/05/06 06:09:35;;;;;;;81.70;49.75;;;9.40;99.90;;;;;;5029015;28;20536;-73
2022/05/06 06:12:00;;;;;;;92.45;52.67;;;9.50;99.90;;;;;;5025348;28;20053;-73
2022/05/06 06:14:26;;;;;;;88.30;55.28;;;9.70;99.90;;;;;;5045415;28;20044;-73
2022/05/06 06:16:52;;;;;;;92.40;54.38;;;9.70;99.90;;;;;;5046681;28;20075;-73
2022/05/06 06:19:18;;;;;;;97.25;54.92;;;9.80;99.90;;;;;;5047136;28;20044;-72
2022/05/06 06:21:44;;;;;;;94.07;55.50;;;9.90;99.90;;;;;;5047729;28;20063;-72
2022/05/06 06:24:10;;;;;;;99.47;56.88;;;10.00;99.90;;;;;;5048458;28;20051;-71
2022/05/06 06:26:36;;;;;;;94.28;57.22;;;10.10;99.90;;;;;;5044603;28;20061;-74
2022/05/06 06:29:03;;;;;;;99.72;58.33;;;10.20;99.90;;;;;;5043868;28;20068;-72
2022/05/06 06:31:31;;;;;;;96.72;56.33;;;10.20;99.90;;;;;;5047135;28;20056;-72
2022/05/06 06:33:58;;;;;;;110.95;61.00;;;10.40;99.90;;;;;;5032644;28;20068;-71
2022/05/06 06:36:24;;;;;;;96.72;55.10;;;10.50;99.90;;;;;;5041828;28;20037;-72
2022/05/06 06:38:50;;;;;;;113.97;63.38;;;10.60;99.90;;;;;;5045936;28;20071;-74
2022/05/06 06:41:16;;;;;;;98.00;57.05;;;10.80;99.90;;;;;;5023645;28;20359;-72
2022/05/06 06:43:42;;;;;;;97.20;56.35;;;10.90;99.90;;;;;;5047210;28;20098;-72
2022/05/06 06:46:09;;;;;;;95.30;55.63;;;11.10;99.90;;;;;;5047428;28;20069;-71
2022/05/06 06:48:35;;;;;;;79.78;50.05;;;11.40;99.90;;;;;;5047689;28;20029;-74
2022/05/06 06:51:00;;;;;;;80.15;47.42;;;11.60;99.90;;;;;;5048398;28;20033;-74
2022/05/06 06:53:26;;;;;;;70.35;42.40;;;11.90;99.90;;;;;;5042118;28;20108;-72
2022/05/06 06:55:52;;;;;;;70.80;41.40;;;12.20;99.90;;;;;;5046332;28;20095;-71
2022/05/06 06:58:18;;;;;;;67.65;41.55;;;12.50;99.90;;;;;;5037433;28;20103;-72
2022/05/06 07:00:43;;;;;;;68.00;41.25;;;12.90;99.90;;;;;;5051293;28;20040;-71
2022/05/06 07:03:11;;;;;;;68.82;39.25;;;13.20;99.90;;;;;;5049829;28;20037;-71
2022/05/06 07:05:37;;;;;;;62.43;38.47;;;13.60;99.90;;;;;;5044275;28;20080;-74
2022/05/06 07:13:32;;;;;;;46.90;31.58;;;14.50;99.90;;;;;;5047338;28;20049;-72
2022/05/06 07:15:58;;;;;;;51.13;31.27;;;14.70;99.90;;;;;;5051779;28;20103;-72
2022/05/06 07:18:24;;;;;;;45.85;30.95;;;14.90;99.90;;;;;;5032793;28;20106;-72
2022/05/06 07:20:50;;;;;;;46.13;30.77;;;15.10;99.90;;;;;;5049478;28;20576;-73
2022/05/06 07:23:16;;;;;;;39.95;28.65;;;15.30;99.90;;;;;;5040507;28;20037;-73
2022/05/06 07:25:42;;;;;;;47.85;31.02;;;15.60;99.90;;;;;;5036911;28;20036;-72
2022/05/06 07:28:08;;;;;;;44.75;30.80;;;15.80;99.90;;;;;;5031175;28;20072;-73
2022/05/06 07:30:34;;;;;;;43.65;29.27;;;15.90;99.90;;;;;;5047080;28;20052;-72
2022/05/06 07:33:00;;;;;;;38.55;27.23;;;16.10;99.90;;;;;;5034890;28;20053;-73
2022/05/06 07:35:25;;;;;;;42.83;29.23;;;16.30;99.90;;;;;;5032566;28;20102;-72
2022/05/06 07:37:51;;;;;;;39.65;28.30;;;16.60;99.90;;;;;;5049282;28;20060;-73
2022/05/06 07:40:17;;;;;;;46.53;26.80;;;16.70;99.90;;;;;;5042949;28;20035;-73
2022/05/06 07:42:43;;;;;;;40.75;27.27;;;16.90;99.90;;;;;;5050504;28;20044;-73
2022/05/06 07:45:12;;;;;;;39.70;28.08;;;17.10;99.90;;;;;;5049923;28;20045;-73
2022/05/06 07:47:38;;;;;;;49.70;29.60;;;17.30;99.90;;;;;;5050615;28;20153;-71
2022/05/06 07:50:05;;;;;;;38.80;28.33;;;17.30;99.90;;;;;;5025691;28;20136;-72
2022/05/06 07:52:32;;;;;;;43.47;28.95;;;17.60;99.90;;;;;;5046354;28;20513;-72
2022/05/06 07:54:57;;;;;;;46.15;32.00;;;17.60;99.90;;;;;;5050256;28;20387;-72
2022/05/06 07:57:23;;;;;;;49.20;32.40;;;17.80;99.90;;;;;;5045604;28;20106;-72
2022/05/06 07:59:48;;;;;;;45.10;28.35;;;17.90;99.90;;;;;;5050096;28;20102;-72
2022/05/06 08:04:59;;;;;;;40.95;28.85;;;18.20;99.90;;;;;;5049964;28;20053;-72
2022/05/06 08:07:25;;;;;;;44.63;29.52;;;18.40;99.90;;;;;;5031839;28;20457;-71
2022/05/06 08:09:50;;;;;;;40.40;29.83;;;18.40;99.90;;;;;;5046912;28;20056;-72
2022/05/06 08:12:16;;;;;;;40.42;28.10;;;18.50;99.90;;;;;;5045075;28;20091;-71
2022/05/06 08:14:43;;;;;;;39.42;26.20;;;18.50;99.90;;;;;;5028855;28;20045;-72
2022/05/06 08:17:08;;;;;;;41.05;27.55;;;18.80;99.90;;;;;;5048411;28;20052;-72
2022/05/06 08:19:34;;;;;;;38.50;28.45;;;18.90;99.90;;;;;;5030506;28;20045;-71
2022/05/06 08:22:00;;;;;;;41.13;28.10;;;18.90;99.90;;;;;;5047595;28;20091;-72
2022/05/06 08:24:27;;;;;;;42.22;31.13;;;19.00;99.90;;;;;;5044120;28;20093;-73
2022/05/06 08:26:53;;;;;;;39.67;29.13;;;19.20;99.90;;;;;;5046165;28;20052;-73
2022/05/06 08:29:19;;;;;;;41.55;28.27;;;19.30;99.90;;;;;;5049321;28;20036;-73
2022/05/06 08:31:44;;;;;;;40.00;29.27;;;19.40;99.90;;;;;;5036240;28;20563;-72
2022/05/06 08:34:12;;;;;;;43.90;31.13;;;19.20;99.90;;;;;;5049310;28;20525;-73
2022/05/06 08:36:39;;;;;;;45.50;29.33;;;19.10;99.90;;;;;;5028332;28;20124;-73
2022/05/06 08:39:06;;;;;;;34.42;25.50;;;19.20;99.90;;;;;;5029827;28;20128;-73
2022/05/06 08:41:32;;;;;;;36.20;25.97;;;19.30;99.90;;;;;;5048211;28;20041;-73
2022/05/06 08:50:50;;;;;;;44.50;29.33;;;19.60;99.90;;;;;;5049348;28;20047;-73
2022/05/06 08:52:20;;;;;;;39.03;27.77;;;20.00;99.90;;;;;;5048331;28;20057;-72
2022/05/06 08:54:46;;;;;;;34.85;26.23;;;20.10;99.90;;;;;;5030426;28;20383;-72
2022/05/06 08:57:12;;;;;;;31.05;22.67;;;20.00;99.90;;;;;;5047003;28;20036;-72
2022/05/06 08:59:38;;;;;;;32.00;24.50;;;20.40;99.90;;;;;;5042445;28;20132;-73
2022/05/06 09:02:03;;;;;;;34.03;24.67;;;20.60;99.90;;;;;;5041001;28;20140;-72
2022/05/06 09:04:30;;;;;;;35.78;26.08;;;20.60;99.90;;;;;;5044864;28;20098;-73
2022/05/06 09:07:21;;;;;;;35.95;24.33;;;20.70;99.90;;;;;;5048393;28;20080;-73
2022/05/06 09:10:15;;;;;;;32.67;23.50;;;20.80;93.20;;;;;;5047710;28;20040;-72
2022/05/06 09:12:44;;;;;;;29.23;21.80;;;20.70;93.50;;;;;;5048167;28;20128;-73
2022/05/06 09:17:56;;;;;;;33.15;20.35;;;20.70;99.80;;;;;;5026917;28;20114;-72
2022/05/06 09:20:23;;;;;;;29.40;19.95;;;21.00;99.90;;;;;;5046710;28;20405;-72
2022/05/06 09:22:52;;;;;;;28.45;19.25;;;21.20;98.40;;;;;;5047712;28;20040;-71
2022/05/06 09:25:38;;;;;;;27.05;18.45;;;20.80;96.40;;;;;;5047686;28;20494;-71
2022/05/06 09:28:05;;;;;;;26.10;19.38;;;21.00;97.00;;;;;;5032903;28;20394;-72
2022/05/06 09:30:32;;;;;;;21.48;16.30;;;20.90;93.20;;;;;;5043284;28;20535;-71
2022/05/06 09:32:58;;;;;;;30.35;20.80;;;21.10;94.50;;;;;;5027601;28;20064;-71
2022/05/06 09:35:32;;;;;;;24.90;19.55;;;21.30;93.30;;;;;;5027493;28;20084;-71
2022/05/06 09:38:02;;;;;;;25.55;17.88;;;21.40;90.40;;;;;;5027550;28;20057;-71
2022/05/06 09:40:29;;;;;;;22.20;15.27;;;21.60;94.30;;;;;;5026511;28;20116;-72
2022/05/06 09:42:54;;;;;;;19.92;14.68;;;21.80;90.00;;;;;;5025453;28;20045;-71
2022/05/06 09:45:39;;;;;;;22.60;15.15;;;22.00;90.40;;;;;;5027832;28;20060;-71
2022/05/06 09:48:09;;;;;;;16.00;13.20;;;22.00;78.20;;;;;;5027911;28;20046;-71
2022/05/06 09:50:41;;;;;;;22.13;15.50;;;22.10;79.60;;;;;;5028202;28;20045;-71
2022/05/06 09:53:08;;;;;;;18.25;13.27;;;22.10;77.30;;;;;;5026865;28;20053;-71
2022/05/06 09:55:44;;;;;;;15.70;13.05;;;21.90;79.80;;;;;;5025206;28;20521;-70
2022/05/06 09:58:10;;;;;;;15.43;12.93;;;21.70;77.10;;;;;;5027357;28;20060;-72
2022/05/06 10:00:38;;;;;;;14.68;10.63;;;21.70;78.70;;;;;;5028424;28;20053;-70
2022/05/06 10:03:04;;;;;;;;;;;21.70;79.80;;;;;;5028501;28;20053;-71
2022/05/06 10:05:32;;;;;;;9.15;6.50;;;22.00;72.70;;;;;;5027435;28;19960;-72
2022/05/06 10:08:04;;;;;;;6.63;5.95;;;22.00;74.70;;;;;;5026499;28;20049;-71
2022/05/06 10:10:32;;;;;;;6.97;6.38;;;22.20;71.80;;;;;;5017493;28;20503;-72
2022/05/06 10:13:03;;;;;;;7.43;6.55;;;22.40;70.50;;;;;;5026627;28;20414;-71
2022/05/06 10:15:30;;;;;;;5.57;5.15;;;22.50;67.50;;;;;;5028260;28;20487;-73
2022/05/06 10:17:57;;;;;;;4.73;4.23;;;22.60;68.10;;;;;;5026504;28;20925;-72
2022/05/06 10:20:36;;;;;;;6.93;5.97;;;22.90;68.60;;;;;;5028279;28;20280;-72
2022/05/06 10:23:07;;;;;;;9.50;6.70;;;23.10;66.50;;;;;;5028052;28;20819;-72
2022/05/06 10:25:42;;;;;;;6.75;5.05;;;23.40;64.60;;;;;;5027032;28;20045;-72
2022/05/06 10:34:14;;;;;;;6.65;5.70;;;23.60;63.20;;;;;;5015545;28;20050;-72
2022/05/06 10:36:54;;;;;;;7.45;6.30;;;23.60;63.10;;;;;;5030377;28;20038;-72
2022/05/06 10:39:24;;;;;;;8.43;7.35;;;24.00;60.90;;;;;;5030146;28;20482;-73
2022/05/06 10:42:16;;;;;;;7.65;6.75;;;24.00;59.70;;;;;;5031657;28;20060;-72
2022/05/06 10:44:50;;;;;;;8.00;7.20;;;23.90;60.70;;;;;;5024776;28;20143;-72
2022/05/06 10:47:15;;;;;;;9.85;7.70;;;23.90;61.00;;;;;;5030881;28;20049;-72
2022/05/06 10:49:43;;;;;;;6.53;5.90;;;23.90;61.10;;;;;;5031560;28;20049;-72
2022/05/06 10:52:23;;;;;;;;;;;24.00;62.20;;;;;;5032362;28;20104;-72
2022/05/06 10:55:03;;;;;;;8.38;7.57;;;24.10;58.90;;;;;;5029631;28;19925;-72
2022/05/06 10:57:44;;;;;;;9.23;8.32;;;24.00;59.40;;;;;;5024058;28;20414;-72
2022/05/06 11:00:10;;;;;;;11.57;6.80;;;24.00;60.20;;;;;;5024499;28;20149;-71
2022/05/06 11:02:38;;;;;;;8.55;7.65;;;24.00;59.70;;;;;;5024153;28;20037;-72
2022/05/06 11:05:08;;;;;;;8.00;6.97;;;24.00;59.30;;;;;;5029631;28;20053;-72
2022/05/06 11:07:36;;;;;;;15.25;7.63;;;24.00;59.50;;;;;;5031101;28;20049;-72
2022/05/06 11:10:13;;;;;;;7.60;6.85;;;24.00;59.50;;;;;;5032698;28;20578;-72
2022/05/06 11:12:42;;;;;;;7.63;6.78;;;24.20;59.00;;;;;;5030685;28;20045;-72
2022/05/06 11:15:13;;;;;;;9.85;7.97;;;24.30;58.00;;;;;;5031000;28;20045;-71
2022/05/06 11:17:39;;;;;;;7.63;6.05;;;24.10;56.80;;;;;;5030576;28;20442;-72
2022/05/06 11:20:23;;;;;;;7.78;6.32;;;24.00;57.80;;;;;;5029984;28;20042;-72
2022/05/06 11:23:09;;;;;;;7.78;6.97;;;24.20;54.90;;;;;;5025010;28;20080;-73
2022/05/06 11:25:37;;;;;;;7.13;6.47;;;24.10;55.90;;;;;;5031053;28;20465;-72
2022/05/06 11:28:08;;;;;;;7.28;6.57;;;24.20;57.50;;;;;;5026246;28;20491;-72
2022/05/06 11:30:35;;;;;;;7.30;6.35;;;24.20;56.10;;;;;;5023141;28;20045;-71
2022/05/06 11:33:02;;;;;;;7.63;6.93;;;24.20;56.20;;;;;;5029096;28;20053;-71
2022/05/06 11:35:41;;;;;;;6.38;5.78;;;24.00;54.80;;;;;;5031234;28;20053;-71
2022/05/06 11:38:07;;;;;;;5.50;5.00;;;24.00;52.50;;;;;;5031094;28;20081;-71
2022/05/06 11:40:37;;;;;;;8.98;6.20;;;24.00;55.20;;;;;;5030768;28;20118;-71
2022/05/06 11:43:23;;;;;;;6.88;6.35;;;24.10;55.00;;;;;;5026935;28;20499;-70
2022/05/06 11:48:42;;;;;;;6.38;5.88;;;24.20;54.50;;;;;;5018509;28;20057;-70
2022/05/06 11:51:10;;;;;;;5.82;5.22;;;24.30;53.30;;;;;;5029423;28;20056;-71
2022/05/06 11:53:37;;;;;;;4.38;4.07;;;24.20;53.40;;;;;;5030184;28;20050;-71
2022/05/06 11:56:03;;;;;;;4.55;4.10;;;24.30;53.20;;;;;;5028261;28;20049;-71
2022/05/06 11:58:29;;;;;;;5.75;5.15;;;24.30;51.90;;;;;;5029854;28;20064;-72
2022/05/06 12:00:55;;;;;;;11.93;6.78;;;24.10;51.10;;;;;;5024312;28;20460;-71
2022/05/06 12:03:22;;;;;;;5.15;4.60;;;24.10;51.70;;;;;;5030149;28;20029;-71
2022/05/06 12:06:07;;;;;;;9.82;5.28;;;24.10;50.90;;;;;;5030420;28;20922;-71
2022/05/06 12:08:35;;;;;;;5.65;4.80;;;24.20;49.30;;;;;;5030451;28;20088;-71
2022/05/06 12:11:06;;;;;;;6.75;6.07;;;24.20;50.70;;;;;;5027690;28;20060;-71
2022/05/06 12:13:40;;;;;;;6.93;4.28;;;24.10;49.70;;;;;;5029990;28;20095;-71
2022/05/06 12:16:13;;;;;;;5.32;3.63;;;24.10;49.30;;;;;;5016000;28;20507;-71
2022/05/06 12:18:59;;;;;;;8.13;4.18;;;24.20;49.80;;;;;;5027945;28;20084;-71
2022/05/06 12:21:27;;;;;;;7.40;5.30;;;24.30;47.10;;;;;;5033112;28;20613;-70
2022/05/06 12:23:55;;;;;;;6.10;3.85;;;24.20;48.00;;;;;;5028714;28;20042;-71
2022/05/06 12:26:37;;;;;;;4.40;3.95;;;24.30;47.70;;;;;;5030078;28;20789;-71
2022/05/06 12:29:17;;;;;;;6.50;5.82;;;24.30;47.00;;;;;;5026339;28;20038;-71
2022/05/06 12:31:43;;;;;;;6.70;5.00;;;24.30;48.50;;;;;;5029612;28;20045;-71
2022/05/06 12:34:09;;;;;;;6.53;5.70;;;24.40;49.50;;;;;;5047388;28;20053;-71
2022/05/06 12:36:37;;;;;;;6.95;6.13;;;24.60;50.00;;;;;;5049484;28;20044;-71
2022/05/06 12:39:18;;;;;;;5.95;5.40;;;24.60;48.70;;;;;;5049120;28;20051;-71
2022/05/06 12:41:44;;;;;;;4.80;4.40;;;24.70;48.70;;;;;;5047909;28;20041;-72
2022/05/06 12:44:21;;;;;;;5.85;4.90;;;24.80;49.20;;;;;;5048309;28;20043;-71
2022/05/06 12:46:48;;;;;;;5.78;5.20;;;24.70;48.60;;;;;;5042275;28;20049;-71
2022/05/06 12:51:59;;;;;;;6.47;4.28;;;24.70;48.20;;;;;;5042153;28;20064;-71
2022/05/06 12:54:26;;;;;;;4.53;3.95;;;24.90;49.40;;;;;;5050704;28;20045;-71
2022/05/06 12:56:54;;;;;;;4.93;4.40;;;24.80;49.30;;;;;;5016533;28;20041;-71
2022/05/06 12:59:19;;;;;;;9.10;4.03;;;25.00;48.80;;;;;;5043999;28;20052;-72
2022/05/06 13:01:45;;;;;;;9.77;3.75;;;25.00;48.50;;;;;;5044401;28;20041;-76
2022/05/06 13:04:11;;;;;;;5.50;4.40;;;25.20;50.00;;;;;;5026631;28;20041;-76
2022/05/06 13:06:36;;;;;;;4.18;3.75;;;25.20;48.90;;;;;;5031325;28;20049;-74
2022/05/06 13:09:02;;;;;;;6.32;3.45;;;25.20;49.40;;;;;;5036472;28;20510;-77
2022/05/06 13:11:28;;;;;;;7.22;4.25;;;25.20;49.10;;;;;;5048127;28;20076;-76
2022/05/06 13:13:54;;;;;;;3.55;3.05;;;25.20;48.60;;;;;;5026059;28;20052;-76
2022/05/06 13:16:20;;;;;;;5.50;3.20;;;25.00;48.70;;;;;;5029528;28;20644;-77
2022/05/06 13:18:46;;;;;;;3.70;2.95;;;24.90;48.60;;;;;;5046096;28;20060;-71
2022/05/06 13:21:33;;;;;;;5.53;3.38;;;25.10;49.30;;;;;;5049728;28;20049;-72
2022/05/06 13:24:01;;;;;;;4.97;3.58;;;25.10;48.90;;;;;;5049584;28;20425;-73
2022/05/06 13:26:27;;;;;;;;;;;25.10;51.10;;;;;;5049821;28;20502;-72